createdAt,value
2018-08-20T00:02:31.503Z,3.75
2018-08-20T00:05:00.643Z,4.08
2018-08-20T00:07:28.911Z,3.80
2018-08-20T00:09:57.249Z,3.83
2018-08-20T00:12:25.533Z,3.95
2018-08-20T00:14:53.823Z,4.25
2018-08-20T00:17:22.110Z,4.05
2018-08-20T00:19:50.349Z,4.58
2018-08-20T00:22:18.579Z,4.08
2018-08-20T00:24:58.300Z,4.40
2018-08-20T00:27:26.598Z,4.28
2018-08-20T00:29:54.850Z,4.00
2018-08-20T00:32:24.531Z,3.75
2018-08-20T00:34:52.752Z,4.15
2018-08-20T00:37:20.968Z,4.20
2018-08-20T00:39:49.224Z,3.70
2018-08-20T00:42:17.473Z,4.30
2018-08-20T00:44:45.681Z,4.12
2018-08-20T00:47:13.936Z,4.08
2018-08-20T00:49:42.169Z,3.85
2018-08-20T00:52:10.410Z,4.20
2018-08-20T00:54:38.629Z,3.80
2018-08-20T00:57:06.870Z,4.37
2018-08-20T00:59:35.070Z,4.30
2018-08-20T01:02:03.315Z,4.08
2018-08-20T01:04:31.572Z,4.05
2018-08-20T01:06:59.838Z,4.20
2018-08-20T01:09:28.068Z,4.22
2018-08-20T01:11:56.298Z,4.12
2018-08-20T01:14:24.595Z,3.90
2018-08-20T01:16:52.820Z,3.75
2018-08-20T01:19:21.026Z,3.90
2018-08-20T01:21:49.296Z,4.00
2018-08-20T01:24:17.543Z,4.00
2018-08-20T01:26:45.786Z,4.03
2018-08-20T01:29:13.991Z,4.30
2018-08-20T01:31:42.223Z,4.20
2018-08-20T01:34:12.103Z,4.08
2018-08-20T01:36:40.354Z,4.50
2018-08-20T01:39:08.672Z,4.30
2018-08-20T01:41:36.895Z,4.08
2018-08-20T01:44:05.134Z,4.55
2018-08-20T01:46:33.383Z,4.22
2018-08-20T01:49:01.623Z,4.25
2018-08-20T01:51:29.845Z,4.33
2018-08-20T01:53:58.099Z,4.15
2018-08-20T01:56:26.340Z,4.40
2018-08-20T01:58:54.589Z,4.28
2018-08-20T02:01:22.823Z,3.75
2018-08-20T02:03:51.042Z,4.35
2018-08-20T02:06:20.356Z,4.75
2018-08-20T02:08:48.611Z,4.30
2018-08-20T02:11:16.884Z,4.45
2018-08-20T02:13:45.115Z,4.53
2018-08-20T02:16:13.347Z,4.12
2018-08-20T02:18:41.578Z,4.58
2018-08-20T02:21:10.059Z,4.83
2018-08-20T02:23:38.299Z,4.35
2018-08-20T02:26:06.910Z,4.25
2018-08-20T02:28:35.184Z,4.12
2018-08-20T02:31:03.433Z,4.55
2018-08-20T02:33:31.701Z,4.12
2018-08-20T02:35:59.936Z,4.42
2018-08-20T02:38:29.134Z,4.62
2018-08-20T02:40:57.401Z,4.72
2018-08-20T02:43:25.654Z,5.42
2018-08-20T02:45:53.894Z,4.83
2018-08-20T02:48:22.107Z,4.58
2018-08-20T02:50:50.340Z,4.45
2018-08-20T02:53:18.581Z,4.55
2018-08-20T02:55:46.792Z,4.97
2018-08-20T02:58:15.033Z,5.20
2018-08-20T03:00:43.242Z,5.55
2018-08-20T03:03:11.514Z,4.72
2018-08-20T03:05:39.774Z,5.30
2018-08-20T03:08:08.014Z,5.03
2018-08-20T03:10:36.254Z,7.15
2018-08-20T03:13:04.614Z,7.03
2018-08-20T03:15:32.908Z,6.10
2018-08-20T03:18:01.129Z,5.83
2018-08-20T03:20:29.384Z,5.80
2018-08-20T03:22:57.598Z,5.37
2018-08-20T03:25:25.860Z,5.12
2018-08-20T03:27:54.072Z,5.22
2018-08-20T03:30:22.310Z,4.87
2018-08-20T03:32:50.543Z,4.97
2018-08-20T03:35:18.776Z,5.03
2018-08-20T03:37:47.005Z,4.95
2018-08-20T03:40:15.351Z,5.20
2018-08-20T03:42:43.569Z,4.80
2018-08-20T03:45:12.048Z,4.80
2018-08-20T03:47:40.236Z,4.90
2018-08-20T03:50:10.827Z,4.90
2018-08-20T03:52:39.093Z,5.25
2018-08-20T03:55:07.338Z,5.03
2018-08-20T03:57:36.070Z,5.25
2018-08-20T04:00:05.145Z,4.58
2018-08-20T04:02:33.387Z,4.97
2018-08-20T04:05:01.728Z,5.03
2018-08-20T04:07:29.883Z,5.33
2018-08-20T04:09:58.144Z,4.95
2018-08-20T04:12:26.382Z,4.92
2018-08-20T04:14:54.614Z,5.08
2018-08-20T04:17:22.817Z,5.58
2018-08-20T04:19:51.036Z,4.92
2018-08-20T04:22:19.244Z,5.00
2018-08-20T04:24:47.527Z,5.10
2018-08-20T04:27:16.038Z,4.72
2018-08-20T04:29:44.258Z,4.65
2018-08-20T04:32:12.499Z,4.50
2018-08-20T04:34:40.704Z,4.62
2018-08-20T04:37:08.910Z,4.72
2018-08-20T04:39:37.141Z,5.42
2018-08-20T04:42:05.409Z,5.70
2018-08-20T04:44:33.602Z,5.10
2018-08-20T04:47:01.882Z,5.85
2018-08-20T04:49:30.125Z,5.50
2018-08-20T04:51:58.385Z,5.33
2018-08-20T04:54:26.633Z,5.60
2018-08-20T04:56:54.878Z,5.45
2018-08-20T04:59:23.139Z,5.35
2018-08-20T05:01:51.489Z,5.75
2018-08-20T05:04:19.693Z,5.53
2018-08-20T05:06:47.899Z,5.40
2018-08-20T05:09:16.132Z,5.95
2018-08-20T05:11:44.389Z,5.80
2018-08-20T05:14:12.692Z,5.97
2018-08-20T05:16:40.943Z,5.58
2018-08-20T05:19:09.175Z,6.05
2018-08-20T05:21:37.436Z,5.97
2018-08-20T05:24:05.774Z,6.35
2018-08-20T05:26:34.079Z,6.00
2018-08-20T05:29:02.326Z,6.17
2018-08-20T05:31:30.633Z,5.87
2018-08-20T05:33:58.893Z,5.50
2018-08-20T05:36:27.318Z,5.95
2018-08-20T05:38:55.663Z,5.83
2018-08-20T05:41:23.911Z,5.80
2018-08-20T05:43:52.208Z,5.75
2018-08-20T05:46:20.494Z,5.85
2018-08-20T05:48:48.776Z,6.08
2018-08-20T05:51:23.383Z,5.95
2018-08-20T05:53:51.625Z,6.05
2018-08-20T05:56:19.849Z,5.95
2018-08-20T05:58:48.066Z,6.37
2018-08-20T06:01:16.380Z,5.37
2018-08-20T06:03:44.886Z,5.72
2018-08-20T06:06:13.119Z,6.30
2018-08-20T06:08:41.361Z,6.00
2018-08-20T06:11:09.709Z,5.97
2018-08-20T06:13:37.945Z,6.42
2018-08-20T06:16:06.594Z,5.95
2018-08-20T06:18:34.821Z,6.33
2018-08-20T06:21:03.145Z,6.22
2018-08-20T06:23:31.408Z,5.62
2018-08-20T06:25:59.695Z,5.58
2018-08-20T06:28:28.146Z,6.17
2018-08-20T06:30:56.366Z,5.53
2018-08-20T06:33:24.573Z,5.22
2018-08-20T06:35:52.861Z,5.80
2018-08-20T06:38:21.084Z,5.83
2018-08-20T06:40:49.303Z,5.87
2018-08-20T06:43:17.535Z,5.92
2018-08-20T06:45:45.763Z,5.83
2018-08-20T06:48:13.985Z,5.60
2018-08-20T06:50:42.212Z,5.72
2018-08-20T06:53:10.457Z,5.62
2018-08-20T06:55:38.736Z,5.10
2018-08-20T06:58:06.996Z,5.12
2018-08-20T07:00:35.236Z,5.47
2018-08-20T07:03:03.481Z,6.58
2018-08-20T07:05:31.710Z,5.78
2018-08-20T07:07:59.967Z,6.53
2018-08-20T07:10:32.479Z,6.50
2018-08-20T07:13:12.209Z,6.12
2018-08-20T07:15:40.431Z,7.08
2018-08-20T07:18:09.044Z,7.45
2018-08-20T07:20:37.468Z,6.08
2018-08-20T07:23:05.762Z,5.58
2018-08-20T07:25:33.934Z,5.42
2018-08-20T07:28:02.281Z,5.15
2018-08-20T07:30:30.514Z,5.03
2018-08-20T07:32:58.802Z,5.42
2018-08-20T07:35:27.049Z,5.05
2018-08-20T07:37:55.318Z,5.25
2018-08-20T07:40:23.563Z,5.10
2018-08-20T07:42:51.764Z,5.35
2018-08-20T07:45:19.981Z,6.37
2018-08-20T07:47:48.230Z,5.20
2018-08-20T07:50:16.454Z,6.00
2018-08-20T07:52:44.654Z,5.95
2018-08-20T07:55:12.895Z,6.42
2018-08-20T07:57:41.126Z,6.00
2018-08-20T08:00:09.844Z,6.20
2018-08-20T08:02:38.415Z,6.47
2018-08-20T08:05:08.318Z,6.22
2018-08-20T08:07:36.544Z,5.45
2018-08-20T08:10:06.530Z,5.95
2018-08-20T08:12:34.832Z,5.50
2018-08-20T08:15:03.125Z,5.95
2018-08-20T08:17:31.290Z,5.00
2018-08-20T08:19:59.577Z,6.10
2018-08-20T08:22:27.976Z,6.17
2018-08-20T08:24:56.697Z,5.28
2018-08-20T08:27:25.001Z,5.97
2018-08-20T08:29:55.375Z,5.50
2018-08-20T08:32:23.591Z,5.12
2018-08-20T08:34:51.855Z,6.35
2018-08-20T08:37:20.061Z,6.08
2018-08-20T08:39:48.279Z,5.53
2018-08-20T08:42:16.570Z,5.75
2018-08-20T08:44:44.810Z,5.65
2018-08-20T08:47:13.062Z,5.45
2018-08-20T08:49:41.307Z,5.25
2018-08-20T08:52:09.572Z,5.30
2018-08-20T08:54:37.846Z,5.47
2018-08-20T08:57:06.334Z,5.50
2018-08-20T08:59:34.643Z,5.12
2018-08-20T09:02:02.883Z,5.33
2018-08-20T09:04:31.108Z,5.20
2018-08-20T09:06:59.407Z,5.28
2018-08-20T09:09:27.673Z,5.10
2018-08-20T09:11:55.926Z,5.00
2018-08-20T09:14:24.169Z,4.78
2018-08-20T09:16:52.436Z,4.87
2018-08-20T09:19:20.738Z,5.03
2018-08-20T09:21:48.981Z,5.10
2018-08-20T09:24:17.230Z,4.78
2018-08-20T09:26:45.491Z,5.10
2018-08-20T09:29:13.825Z,5.03
2018-08-20T09:31:42.192Z,5.58
2018-08-20T09:34:10.404Z,5.37
2018-08-20T09:36:40.291Z,5.30
2018-08-20T09:39:08.546Z,4.78
2018-08-20T09:41:36.828Z,4.90
2018-08-20T09:44:05.075Z,4.90
2018-08-20T09:46:33.551Z,5.08
2018-08-20T09:49:01.930Z,5.30
2018-08-20T09:51:30.519Z,5.10
2018-08-20T09:53:58.779Z,4.67
2018-08-20T09:56:27.063Z,4.92
2018-08-20T09:58:55.267Z,4.83
2018-08-20T10:01:23.535Z,5.20
2018-08-20T10:03:51.970Z,4.83
2018-08-20T10:06:20.238Z,5.80
2018-08-20T10:08:48.457Z,6.10
2018-08-20T10:11:16.677Z,5.20
2018-08-20T10:13:44.966Z,4.83
2018-08-20T10:16:13.210Z,6.08
2018-08-20T10:18:41.512Z,5.22
2018-08-20T10:21:09.723Z,4.90
2018-08-20T10:23:37.961Z,4.67
2018-08-20T10:26:06.810Z,5.42
2018-08-20T10:28:35.035Z,4.90
2018-08-20T10:31:03.341Z,5.22
2018-08-20T10:33:32.125Z,5.42
2018-08-20T10:36:00.375Z,5.10
2018-08-20T10:38:28.657Z,5.20
2018-08-20T10:40:56.934Z,5.22
2018-08-20T10:43:25.167Z,5.35
2018-08-20T10:45:58.730Z,4.97
2018-08-20T10:48:26.973Z,4.87
2018-08-20T10:50:55.221Z,5.20
2018-08-20T10:53:23.482Z,5.40
2018-08-20T10:55:51.740Z,5.12
2018-08-20T10:58:20.012Z,5.20
2018-08-20T11:00:48.255Z,4.70
2018-08-20T11:03:16.845Z,4.97
2018-08-20T11:05:45.092Z,5.03
2018-08-20T11:08:13.337Z,5.37
2018-08-20T11:10:41.578Z,5.40
2018-08-20T11:13:09.894Z,4.95
2018-08-20T11:15:38.179Z,5.28
2018-08-20T11:18:06.430Z,4.80
2018-08-20T11:20:34.694Z,4.90
2018-08-20T11:23:02.954Z,5.10
2018-08-20T11:25:31.220Z,5.08
2018-08-20T11:27:59.504Z,5.15
2018-08-20T11:30:27.975Z,5.12
2018-08-20T11:32:56.232Z,5.12
2018-08-20T11:35:24.444Z,5.00
2018-08-20T11:37:52.694Z,4.97
2018-08-20T11:40:20.946Z,5.20
2018-08-20T11:42:49.187Z,5.33
2018-08-20T11:45:17.521Z,5.47
2018-08-20T11:47:45.791Z,4.70
2018-08-20T11:50:14.051Z,5.00
2018-08-20T11:52:42.363Z,5.30
2018-08-20T11:55:10.571Z,4.78
2018-08-20T11:57:38.793Z,5.25
2018-08-20T12:00:08.760Z,4.97
2018-08-20T12:02:37.176Z,4.92
2018-08-20T12:05:05.961Z,4.65
2018-08-20T12:07:34.291Z,5.10
2018-08-20T12:10:02.484Z,4.95
2018-08-20T12:12:30.810Z,4.10
2018-08-20T12:14:59.058Z,5.05
2018-08-20T12:17:27.279Z,4.55
2018-08-20T12:19:55.539Z,4.92
2018-08-20T12:22:23.863Z,4.42
2018-08-20T12:24:52.120Z,4.28
2018-08-20T12:27:20.367Z,4.20
2018-08-20T12:29:48.618Z,5.10
2018-08-20T12:32:16.876Z,4.35
2018-08-20T12:34:45.644Z,4.08
2018-08-20T13:11:22.476Z,4.30
2018-08-20T13:13:50.687Z,4.15
2018-08-20T13:16:18.984Z,4.30
2018-08-20T13:18:47.098Z,3.72
2018-08-20T13:21:15.299Z,3.67
2018-08-20T13:23:43.511Z,3.95
2018-08-20T13:26:11.738Z,3.40
2018-08-20T13:28:39.963Z,3.60
2018-08-20T13:31:08.206Z,4.03
2018-08-20T13:33:36.452Z,3.60
2018-08-20T13:36:04.673Z,3.50
2018-08-20T13:38:32.932Z,3.30
2018-08-20T13:41:01.119Z,3.55
2018-08-20T13:43:29.358Z,3.60
2018-08-20T13:45:57.586Z,3.20
2018-08-20T13:48:25.813Z,3.50
2018-08-20T13:50:54.356Z,3.50
2018-08-20T13:53:22.611Z,3.40
2018-08-20T13:55:50.898Z,3.90
2018-08-20T13:58:19.120Z,3.40
2018-08-20T14:00:47.375Z,3.10
2018-08-20T14:03:15.630Z,2.90
2018-08-20T14:05:43.820Z,3.47
2018-08-20T14:08:12.035Z,3.22
2018-08-20T14:10:40.263Z,2.95
2018-08-20T14:13:08.467Z,2.85
2018-08-20T14:15:36.754Z,3.02
2018-08-20T14:18:04.907Z,3.17
2018-08-20T14:20:33.109Z,2.75
2018-08-20T14:23:01.326Z,2.98
2018-08-20T14:25:29.539Z,2.85
2018-08-20T14:27:57.829Z,2.80
2018-08-20T14:30:26.059Z,3.30
2018-08-20T14:32:54.269Z,3.08
2018-08-20T14:35:22.480Z,2.62
2018-08-20T14:37:50.742Z,3.10
2018-08-20T14:40:19.211Z,2.70
2018-08-20T14:42:47.427Z,2.83
2018-08-20T14:45:16.507Z,2.98
2018-08-20T14:47:45.275Z,2.67
2018-08-20T14:50:15.502Z,3.20
2018-08-20T14:52:43.897Z,3.08
2018-08-20T14:55:12.586Z,3.00
2018-08-20T14:57:40.807Z,2.87
2018-08-20T15:00:13.569Z,2.87
2018-08-20T15:02:41.835Z,3.05
2018-08-20T15:05:10.083Z,2.90
2018-08-20T15:07:38.298Z,3.00
2018-08-20T15:10:07.504Z,3.00
2018-08-20T15:12:35.763Z,3.10
2018-08-20T15:15:04.327Z,3.12
2018-08-20T15:17:32.446Z,2.52
2018-08-20T15:20:00.655Z,2.75
2018-08-20T15:22:28.904Z,2.90
2018-08-20T15:24:57.115Z,3.50
2018-08-20T15:27:25.331Z,2.95
2018-08-20T15:29:53.565Z,3.05
2018-08-20T15:32:21.847Z,3.20
2018-08-20T15:34:50.013Z,3.30
2018-08-20T15:37:18.226Z,3.02
2018-08-20T15:39:46.480Z,2.72
2018-08-20T15:42:14.704Z,3.02
2018-08-20T15:44:42.944Z,3.17
2018-08-20T15:47:11.168Z,3.50
2018-08-20T15:49:39.387Z,3.30
2018-08-20T15:52:07.609Z,2.42
2018-08-20T15:54:35.799Z,2.80
2018-08-20T15:57:04.017Z,2.80
2018-08-20T15:59:32.236Z,2.65
2018-08-20T16:02:00.475Z,3.00
2018-08-20T16:04:28.688Z,2.95
2018-08-20T16:06:56.936Z,2.80
2018-08-20T16:09:25.164Z,3.20
2018-08-20T16:11:53.416Z,2.80
2018-08-20T16:14:21.665Z,2.72
2018-08-20T16:16:49.889Z,2.72
2018-08-20T16:19:18.131Z,2.47
2018-08-20T16:21:46.337Z,2.72
2018-08-20T16:24:14.587Z,2.58
2018-08-20T16:26:42.874Z,2.30
2018-08-20T16:29:11.016Z,2.12
2018-08-20T16:31:39.251Z,2.27
2018-08-20T16:34:07.500Z,2.20
2018-08-20T16:36:35.753Z,2.10
2018-08-20T16:39:06.403Z,2.20
2018-08-20T16:41:34.668Z,1.95
2018-08-20T16:44:02.923Z,2.08
2018-08-20T16:46:31.164Z,1.95
2018-08-20T16:48:59.415Z,2.20
2018-08-20T16:51:27.708Z,2.20
2018-08-20T16:53:55.948Z,2.08
2018-08-20T16:56:24.162Z,2.15
2018-08-20T16:58:52.419Z,2.00
2018-08-20T17:01:20.647Z,1.92
2018-08-20T17:03:48.865Z,1.62
2018-08-20T17:06:17.090Z,1.60
2018-08-20T17:08:45.583Z,1.65
2018-08-20T17:11:14.297Z,1.85
2018-08-20T17:13:42.765Z,2.15
2018-08-20T17:16:13.295Z,1.82
2018-08-20T17:18:41.592Z,1.70
2018-08-20T17:21:09.826Z,2.00
2018-08-20T17:23:38.081Z,1.75
2018-08-20T17:26:07.150Z,2.00
2018-08-20T17:28:35.428Z,1.98
2018-08-20T17:31:06.895Z,1.77
2018-08-20T17:33:35.700Z,1.75
2018-08-20T17:36:04.484Z,2.05
2018-08-20T17:38:32.699Z,2.22
2018-08-20T17:41:00.923Z,1.80
2018-08-20T17:43:29.164Z,1.85
2018-08-20T17:45:57.893Z,1.82
2018-08-20T17:48:29.167Z,2.08
2018-08-20T17:50:58.646Z,1.70
2018-08-20T17:53:36.995Z,2.05
2018-08-20T17:56:05.230Z,2.40
2018-08-20T17:58:33.458Z,2.80
2018-08-20T18:01:03.326Z,2.90
2018-08-20T18:03:32.239Z,2.25
2018-08-20T18:06:04.199Z,2.10
2018-08-20T18:08:33.414Z,1.80
2018-08-20T18:11:01.979Z,2.25
2018-08-20T18:13:42.204Z,2.20
2018-08-20T18:16:11.643Z,2.30
2018-08-20T18:18:40.956Z,2.80
2018-08-20T18:21:09.227Z,3.37
2018-08-20T18:23:37.941Z,2.60
2018-08-20T18:26:06.203Z,2.65
2018-08-20T18:28:39.325Z,1.87
2018-08-20T18:31:13.840Z,2.08
2018-08-20T18:33:42.956Z,1.92
2018-08-20T18:36:14.024Z,1.72
2018-08-20T18:38:50.928Z,1.55
2018-08-20T18:41:19.863Z,1.57
2018-08-20T18:43:48.127Z,1.67
2018-08-20T18:46:16.334Z,1.60
2018-08-20T18:48:44.566Z,1.70
2018-08-20T18:51:16.443Z,1.37
2018-08-20T18:53:44.690Z,1.55
2018-08-20T18:56:17.012Z,1.50
2018-08-20T18:58:45.505Z,1.70
2018-08-20T19:01:13.787Z,1.87
2018-08-20T19:03:47.030Z,1.40
2018-08-20T19:06:15.951Z,1.60
2018-08-20T19:08:44.218Z,1.85
2018-08-20T19:11:12.946Z,1.30
2018-08-20T19:13:41.635Z,1.35
2018-08-20T19:16:41.040Z,1.70
2018-08-20T19:19:09.274Z,1.72
2018-08-20T19:21:38.894Z,1.70
2018-08-20T19:24:07.986Z,1.50
2018-08-20T19:26:36.530Z,1.37
2018-08-20T19:29:17.973Z,1.62
2018-08-20T19:31:46.209Z,1.12
2018-08-20T19:34:14.417Z,1.62
2018-08-20T19:36:42.678Z,1.60
2018-08-20T19:39:10.927Z,1.65
2018-08-20T19:41:39.150Z,1.60
2018-08-20T19:44:07.397Z,1.80
2018-08-20T19:46:37.543Z,1.05
2018-08-20T19:49:10.030Z,1.92
2018-08-20T19:51:40.064Z,1.87
2018-08-20T19:54:09.893Z,1.57
2018-08-20T19:56:38.388Z,1.60
2018-08-20T19:59:06.647Z,1.80
2018-08-20T20:01:34.867Z,1.90
2018-08-20T20:04:03.141Z,1.37
2018-08-20T20:06:31.385Z,1.42
2018-08-20T20:09:05.633Z,2.05
2018-08-20T20:11:34.082Z,1.80
2018-08-20T20:14:03.345Z,1.42
2018-08-20T20:16:40.128Z,1.90
2018-08-20T20:19:08.757Z,1.62
2018-08-20T20:21:37.075Z,1.92
2018-08-20T20:24:05.519Z,1.82
2018-08-20T20:26:33.815Z,2.00
2018-08-20T20:29:02.397Z,2.10
2018-08-20T20:31:30.629Z,2.10
2018-08-20T20:33:58.854Z,2.05
2018-08-20T20:36:28.276Z,2.27
2018-08-20T20:38:56.780Z,1.92
2018-08-20T20:41:25.149Z,2.15
2018-08-20T20:43:53.630Z,2.42
2018-08-20T20:46:21.899Z,2.08
2018-08-20T20:48:50.198Z,1.98
2018-08-20T20:51:18.545Z,1.95
2018-08-20T20:53:46.835Z,1.95
2018-08-20T20:56:15.116Z,2.35
2018-08-20T20:58:43.378Z,2.25
2018-08-20T21:01:12.948Z,2.00
2018-08-20T21:03:41.087Z,2.35
2018-08-20T21:06:09.428Z,2.40
2018-08-20T21:08:43.064Z,2.35
2018-08-20T21:11:12.359Z,1.98
2018-08-20T21:13:41.219Z,2.12
2018-08-20T21:16:10.529Z,2.02
2018-08-20T21:18:44.812Z,2.37
2018-08-20T21:21:14.448Z,2.02
2018-08-20T21:23:42.896Z,2.10
2018-08-20T21:26:11.491Z,1.95
2018-08-20T21:28:42.525Z,1.85
2018-08-20T21:31:11.282Z,2.55
2018-08-20T21:33:40.316Z,1.98
2018-08-20T21:36:08.574Z,2.05
2018-08-20T21:38:36.881Z,2.70
2018-08-20T21:41:05.177Z,1.95
2018-08-20T21:43:38.944Z,2.33
2018-08-20T21:46:07.350Z,1.95
2018-08-20T21:48:35.526Z,2.20
2018-08-20T21:51:07.304Z,2.10
2018-08-20T21:53:37.940Z,2.22
2018-08-20T21:56:08.630Z,2.05
2018-08-20T21:58:37.469Z,2.10
2018-08-20T22:01:06.546Z,2.40
2018-08-20T22:03:35.222Z,2.02
2018-08-20T22:06:03.803Z,2.12
2018-08-20T22:08:32.080Z,2.20
2018-08-20T22:11:00.296Z,2.37
2018-08-20T22:13:28.490Z,2.05
2018-08-20T22:16:10.206Z,2.02
2018-08-20T22:18:39.378Z,2.00
2018-08-20T22:21:11.026Z,2.30
2018-08-20T22:23:40.013Z,1.77
2018-08-20T22:26:10.390Z,1.80
2018-08-20T22:28:38.830Z,1.90
2018-08-20T22:31:07.061Z,2.40
2018-08-20T22:33:36.944Z,2.20
2018-08-20T22:36:05.507Z,1.90
2018-08-20T22:38:39.903Z,1.75
2018-08-20T22:41:08.216Z,2.00
2018-08-20T22:43:36.456Z,2.12
2018-08-20T22:46:04.720Z,1.90
2018-08-20T22:48:32.992Z,2.05
2018-08-20T22:51:07.976Z,2.15
2018-08-20T22:53:36.216Z,2.37
2018-08-20T22:56:11.301Z,2.05
2018-08-20T22:58:39.541Z,2.20
2018-08-20T23:01:07.743Z,2.12
2018-08-20T23:03:35.974Z,2.27
2018-08-20T23:06:04.223Z,2.87
2018-08-20T23:08:32.555Z,2.10
2018-08-20T23:11:00.887Z,2.72
2018-08-20T23:13:29.203Z,2.08
2018-08-20T23:15:57.424Z,2.20
2018-08-20T23:18:25.666Z,2.15
2018-08-20T23:20:53.887Z,2.50
2018-08-20T23:23:38.853Z,2.10
2018-08-20T23:26:11.251Z,2.10
2018-08-20T23:28:40.792Z,2.17
2018-08-20T23:31:09.063Z,2.02
2018-08-20T23:33:39.694Z,2.08
2018-08-20T23:36:08.588Z,2.25
2018-08-20T23:38:36.836Z,2.05
2018-08-20T23:41:05.076Z,2.33
2018-08-20T23:43:33.335Z,2.08
2018-08-20T23:46:01.625Z,2.37
2018-08-20T23:48:29.917Z,2.35
2018-08-20T23:51:03.640Z,2.30
2018-08-20T23:53:31.910Z,2.25
2018-08-20T23:56:00.157Z,2.10
2018-08-20T23:58:28.539Z,2.25
